Time;durP1;ratioP1;P1;durP2;ratioP2;P2;SDS_P1;SDS_P2;PMS_P1;PMS_P2;Temp;Humidity;BMP_temperature;BMP_pressure;BME280_temperature;BME280_humidity;BME280_pressure;Samples;Min_cycle;Max_cycle;Signal;HPM_P1;HPM_P2
2022/10/01 00:32:06;;;;;;;;;;;;;;;;;;;;;
2022/10/01 00:37:21;;;;;;;0.40;0.40;;;11.40;99.90;;;;;;5694402;22;20038;-95
2022/10/01 00:39:47;;;;;;;0.20;0.20;;;11.20;99.90;;;;;;5021810;28;20038;-96
2022/10/01 00:42:20;;;;;;;0.35;0.35;;;10.50;99.90;;;;;;5003338;28;20046;-93
2022/10/01 00:44:49;;;;;;;1.17;1.05;;;11.90;99.90;;;;;;5020500;28;20050;-94
2022/10/01 00:47:42;;;;;;;0.93;0.85;;;10.50;99.90;;;;;;5049508;22;20063;-95
2022/10/01 00:50:37;;;;;;;0.82;0.60;;;10.50;99.90;;;;;;5018975;28;20054;-95
2022/10/01 00:53:09;;;;;;;0.00;0.00;;;10.40;99.90;;;;;;5015693;28;20081;-93
2022/10/01 00:55:38;;;;;;;0.68;0.55;;;11.50;99.90;;;;;;5018463;28;20030;-94
2022/10/01 00:58:06;;;;;;;1.38;0.52;;;10.50;99.90;;;;;;5019372;28;20024;-95
2022/10/01 01:00:34;;;;;;;0.43;0.43;;;10.40;99.90;;;;;;5019767;28;20060;-94
2022/10/01 01:34:24;;;;;;;0.63;0.47;;;10.40;99.90;;;;;;4994788;28;20048;-94
2022/10/01 01:37:01;;;;;;;0.32;0.17;;;10.30;99.90;;;;;;4979885;28;20078;-94
2022/10/01 01:50:56;;;;;;;0.50;0.50;;;10.50;99.90;;;;;;5540839;22;21031;31
2022/10/01 01:53:22;;;;;;;0.80;0.50;;;10.50;99.90;;;;;;5518779;23;20028;-95
2022/10/01 01:56:03;;;;;;;0.20;0.20;;;10.40;99.90;;;;;;5018611;28;20045;-95
2022/10/01 02:01:05;;;;;;;0.75;0.55;;;10.40;99.90;;;;;;5340185;22;20060;-94
2022/10/01 02:03:35;;;;;;;1.05;0.38;;;10.40;99.90;;;;;;4982803;28;20077;-94
2022/10/01 02:06:30;;;;;;;1.63;1.55;;;11.10;99.90;;;;;;4997461;28;20026;-95
2022/10/01 02:09:07;;;;;;;0.30;0.30;;;10.30;99.90;;;;;;4982997;28;20034;-95
2022/10/01 02:11:39;;;;;;;0.45;0.45;;;10.90;99.90;;;;;;5456660;23;20040;-93
2022/10/01 02:19:51;;;;;;;3.03;0.80;;;10.40;99.90;;;;;;4996651;28;20031;-96
2022/10/01 02:22:42;;;;;;;;;;;;;;;;;;;;;
2022/10/01 02:25:12;;;;;;;0.70;0.70;;;10.40;99.90;;;;;;4996658;28;20058;-94
2022/10/01 02:27:46;;;;;;;1.00;0.32;;;11.50;99.90;;;;;;4981116;28;20056;-94
2022/10/01 02:30:14;;;;;;;0.63;0.45;;;10.40;99.90;;;;;;4980903;28;20019;-93
2022/10/01 02:32:45;;;;;;;0.00;0.00;;;10.40;99.90;;;;;;4995266;28;20041;-92
2022/10/01 02:35:17;;;;;;;2.20;0.55;;;11.10;99.90;;;;;;4977623;28;20079;-93
2022/10/01 02:37:46;;;;;;;0.35;0.25;;;10.20;99.90;;;;;;4961139;28;20030;-92
2022/10/01 02:40:16;;;;;;;0.75;0.68;;;11.70;99.90;;;;;;4961254;28;20038;-94
2022/10/01 02:42:48;;;;;;;0.32;0.30;;;10.30;99.90;;;;;;4961633;28;20297;-93
2022/10/01 02:45:23;;;;;;;0.43;0.43;;;10.40;99.90;;;;;;4976994;28;20030;-94
2022/10/01 02:47:56;;;;;;;0.63;0.38;;;10.40;99.90;;;;;;4962115;28;20047;-93
2022/10/01 02:50:26;;;;;;;1.10;0.47;;;10.90;99.90;;;;;;4977302;28;20046;-93
2022/10/01 02:53:09;;;;;;;0.10;0.10;;;10.50;99.90;;;;;;4994111;28;20041;-94
2022/10/01 02:55:40;;;;;;;0.77;0.77;;;10.50;99.90;;;;;;4995534;28;20054;-95
2022/10/01 02:58:20;;;;;;;0.20;0.10;;;11.50;99.90;;;;;;5360359;23;20072;31
2022/10/01 03:00:46;;;;;;;0.40;0.40;;;10.50;99.90;;;;;;4941128;28;20062;-93
2022/10/01 03:06:36;;;;;;;;;;;;;;;;;;;;;
2022/10/01 03:09:07;;;;;;;0.55;0.40;;;9.90;99.90;;;;;;4990749;28;20057;-94
2022/10/01 03:11:34;;;;;;;0.60;0.47;;;10.50;99.90;;;;;;4994106;28;20094;-94
2022/10/01 03:14:12;;;;;;;0.30;0.30;;;10.50;99.90;;;;;;5006846;28;20026;-94
2022/10/01 03:16:55;;;;;;;;;;;;;;;;;;;;;
2022/10/01 03:19:21;;;;;;;1.23;1.02;;;11.50;99.90;;;;;;5013873;28;20073;-95
2022/10/01 03:21:49;;;;;;;0.25;0.25;;;11.70;99.90;;;;;;4979920;28;20031;-93
2022/10/01 03:24:15;;;;;;;0.00;0.00;;;10.60;99.90;;;;;;4979946;28;20054;-93
2022/10/01 03:26:44;;;;;;;0.50;0.50;;;10.60;99.90;;;;;;4981002;28;20042;-95
2022/10/01 03:29:10;;;;;;;0.30;0.28;;;10.60;99.90;;;;;;5054033;23;20073;-93
2022/10/01 03:31:36;;;;;;;0.50;0.28;;;10.60;99.90;;;;;;4980003;28;20026;-94
2022/10/01 03:34:02;;;;;;;0.52;0.47;;;10.60;99.90;;;;;;4996607;28;20030;-94
2022/10/01 03:36:29;;;;;;;0.75;0.47;;;10.80;99.90;;;;;;5042434;23;20050;-94
2022/10/01 03:38:55;;;;;;;0.00;0.00;;;10.80;99.90;;;;;;5016137;28;20022;-93
2022/10/01 03:41:21;;;;;;;0.30;0.30;;;10.60;99.90;;;;;;4982979;28;20022;-95
2022/10/01 03:43:46;;;;;;;0.00;0.00;;;10.70;99.90;;;;;;4999805;28;20057;-95
2022/10/01 03:46:12;;;;;;;0.05;0.05;;;11.50;99.90;;;;;;4999524;28;20034;-95
2022/10/01 03:48:38;;;;;;;0.63;0.45;;;10.60;99.90;;;;;;4981648;28;20026;-95
2022/10/01 03:51:04;;;;;;;0.30;0.30;;;10.70;99.90;;;;;;4998085;28;20034;-95
2022/10/01 03:53:30;;;;;;;0.28;0.22;;;10.70;99.90;;;;;;4997424;28;20022;-95
2022/10/01 03:58:25;;;;;;;0.00;0.00;;;10.70;99.90;;;;;;4993128;28;20041;-95
2022/10/01 04:00:54;;;;;;;0.03;0.03;;;10.70;99.90;;;;;;5035504;23;20074;-94
2022/10/01 04:03:21;;;;;;;0.15;0.05;;;10.60;99.90;;;;;;5013627;28;20030;-95
2022/10/01 04:05:46;;;;;;;0.00;0.00;;;11.50;99.90;;;;;;5013402;28;20030;-95
2022/10/01 04:08:13;;;;;;;0.20;0.20;;;10.70;99.90;;;;;;5013740;28;20031;-95
2022/10/01 04:10:39;;;;;;;0.40;0.38;;;9.80;99.90;;;;;;5013907;23;20126;-95
2022/10/01 04:13:05;;;;;;;0.00;0.00;;;10.70;99.90;;;;;;5013685;28;20034;-95
2022/10/01 04:15:34;;;;;;;0.10;0.05;;;10.80;99.90;;;;;;4980323;28;20030;-95
2022/10/01 04:18:06;;;;;;;0.22;0.20;;;10.80;99.90;;;;;;5000414;28;20044;-94
2022/10/01 04:20:36;;;;;;;0.00;0.00;;;10.80;99.90;;;;;;4983589;28;20050;-94
2022/10/01 04:23:03;;;;;;;0.03;0.00;;;11.80;99.90;;;;;;4984644;28;20030;-94
2022/10/01 04:25:30;;;;;;;0.13;0.13;;;12.00;99.90;;;;;;4999907;28;20038;-94
2022/10/01 04:28:01;;;;;;;0.00;0.00;;;10.80;99.90;;;;;;5000585;28;20054;-95
2022/10/01 04:35:38;;;;;;;0.25;0.20;;;10.90;99.90;;;;;;5202181;22;20046;-95
2022/10/01 04:38:07;;;;;;;0.10;0.10;;;10.90;99.90;;;;;;5084100;23;20057;-95
2022/10/01 04:40:35;;;;;;;0.08;0.08;;;12.10;99.90;;;;;;5016889;28;20038;-95
2022/10/01 04:43:02;;;;;;;0.03;0.03;;;10.90;99.90;;;;;;5016685;28;20035;-94
2022/10/01 04:45:28;;;;;;;1.00;0.17;;;12.20;99.90;;;;;;4999077;28;20079;-94
2022/10/01 04:47:55;;;;;;;0.00;0.00;;;10.90;99.90;;;;;;5011054;23;20209;-95
2022/10/01 05:41:17;;;;;;;0.00;0.00;;;11.20;99.90;;;;;;5013811;28;20058;-94
2022/10/01 05:44:30;;;;;;;;;;;;;;;;;;;;;
2022/10/01 05:47:10;;;;;;;0.00;0.00;;;11.80;99.90;;;;;;4995241;28;20164;-93
2022/10/01 05:50:02;;;;;;;0.75;0.45;;;11.20;99.90;;;;;;4979788;28;20030;-94
2022/10/01 05:52:48;;;;;;;;;;;;;;;;;;;;;
2022/10/01 05:55:54;;;;;;;0.38;0.35;;;12.20;99.90;;;;;;4995748;28;20046;-94
2022/10/01 05:58:41;;;;;;;0.15;0.15;;;10.80;99.90;;;;;;4925744;28;20133;-94
2022/10/01 06:01:26;;;;;;;;;;;11.60;99.90;;;;;;4994534;28;20038;-95
2022/10/01 06:04:23;;;;;;;;;;;;;;;;;;;;;
2022/10/01 06:06:55;;;;;;;0.10;0.10;;;11.40;99.90;;;;;;4982780;28;20061;-91
2022/10/01 06:09:24;;;;;;;0.00;0.00;;;12.20;99.90;;;;;;5002928;28;20062;-91
2022/10/01 06:11:50;;;;;;;0.00;0.00;;;11.40;99.90;;;;;;4984104;28;20046;-92
2022/10/01 06:16:56;;;;;;;0.10;0.10;;;11.60;99.90;;;;;;5683781;23;20042;-93
2022/10/01 06:19:27;;;;;;;0.00;0.00;;;12.50;99.90;;;;;;5118575;23;20042;-93
2022/10/01 06:21:55;;;;;;;0.00;0.00;;;12.90;99.90;;;;;;5070705;23;20042;-92
2022/10/01 06:24:35;;;;;;;;;;;;;;;;;;;;;
2022/10/01 06:27:12;;;;;;;0.00;0.00;;;12.30;99.90;;;;;;4990278;28;20050;-93
2022/10/01 06:29:42;;;;;;;0.25;0.25;;;11.50;99.90;;;;;;5015368;28;20038;-94
2022/10/01 06:32:18;;;;;;;0.22;0.20;;;12.60;99.90;;;;;;4997704;28;20026;-92
2022/10/01 06:35:04;;;;;;;0.05;0.05;;;12.70;99.90;;;;;;4977515;28;20090;-93
2022/10/01 06:37:48;;;;;;;0.38;0.25;;;12.50;99.90;;;;;;4994593;28;20118;-92
2022/10/01 06:40:16;;;;;;;0.00;0.00;;;12.50;99.90;;;;;;5012801;28;20030;-93
2022/10/01 06:48:35;;;;;;;0.00;0.00;;;12.00;99.90;;;;;;5346064;23;20361;-92
2022/10/01 06:51:04;;;;;;;0.00;0.00;;;11.70;99.90;;;;;;5018342;28;20045;-93
2022/10/01 06:53:55;;;;;;;0.10;0.10;;;12.20;99.90;;;;;;5018008;28;20029;-93
2022/10/01 07:08:22;;;;;;;0.35;0.28;;;12.40;99.90;;;;;;5240449;23;20038;-95
2022/10/01 07:11:00;;;;;;;;;;;;;;;;;;;;;
2022/10/01 07:13:26;;;;;;;0.00;0.00;;;12.60;99.90;;;;;;5000253;28;20038;-92
2022/10/01 07:16:26;;;;;;;0.15;0.15;;;12.70;99.90;;;;;;5173632;23;20065;-94
2022/10/01 07:19:01;;;;;;;;;;;;;;;;;;;;;
2022/10/01 07:21:48;;;;;;;1.38;0.35;;;12.80;99.90;;;;;;4998395;28;20038;-94
2022/10/01 07:24:29;;;;;;;0.30;0.30;;;13.80;99.90;;;;;;5206320;23;20050;-94
2022/10/01 08:15:30;;;;;;;;;;;;;;;;;;;;;
2022/10/01 08:33:03;;;;;;;0.98;0.20;;;13.40;99.90;;;;;;5766613;23;20035;-95
2022/10/01 09:13:05;;;;;;;;;;;;;;;;;;;;;
2022/10/01 09:15:51;;;;;;;0.03;0.03;;;15.40;99.90;;;;;;4990452;23;20050;-92
2022/10/01 09:18:30;;;;;;;6.40;0.95;;;15.50;99.90;;;;;;4998884;28;20050;-93
2022/10/01 09:20:57;;;;;;;6.82;0.40;;;15.50;99.90;;;;;;5015901;28;20029;-94
2022/10/01 09:23:30;;;;;;;1.15;0.68;;;15.80;99.90;;;;;;5015324;28;20028;-93
2022/10/01 09:25:58;;;;;;;0.25;0.22;;;15.90;99.90;;;;;;4998970;28;20018;-92
2022/10/01 09:28:30;;;;;;;0.35;0.22;;;15.80;99.90;;;;;;4982066;28;20026;-93
2022/10/01 09:31:15;;;;;;;3.40;0.57;;;15.90;99.90;;;;;;4982029;28;20022;-93
2022/10/01 09:34:02;;;;;;;1.80;0.55;;;15.90;99.90;;;;;;4982216;28;20033;-93
2022/10/01 09:36:50;;;;;;;0.20;0.20;;;15.80;99.90;;;;;;4968499;28;20048;-94
2022/10/01 09:39:43;;;;;;;0.98;0.68;;;15.50;99.90;;;;;;4980777;28;20062;-93
2022/10/01 09:42:09;;;;;;;0.55;0.38;;;15.10;99.90;;;;;;4997692;28;20098;-94
2022/10/01 09:44:36;;;;;;;13.60;0.30;;;15.90;99.90;;;;;;4997481;28;20053;-93
2022/10/01 09:47:02;;;;;;;0.10;0.10;;;15.00;99.90;;;;;;4997387;28;20045;-94
2022/10/01 09:49:38;;;;;;;0.00;0.00;;;14.50;99.90;;;;;;4996523;28;20080;-94
2022/10/01 09:52:13;;;;;;;;;;;15.30;99.90;;;;;;4981957;28;20102;-94
2022/10/01 09:54:49;;;;;;;0.00;0.00;;;15.10;99.90;;;;;;4997597;28;19973;-94
2022/10/01 09:57:38;;;;;;;0.45;0.40;;;16.40;99.90;;;;;;4996636;28;20034;-93
2022/10/01 10:00:13;;;;;;;0.00;0.00;;;15.80;99.90;;;;;;4981177;28;20040;-94
2022/10/01 10:02:57;;;;;;;4.47;1.27;;;15.90;99.90;;;;;;4997761;28;20049;-94
2022/10/01 10:05:41;;;;;;;0.08;0.08;;;16.10;99.90;;;;;;4981643;28;20034;-95
2022/10/01 10:08:17;;;;;;;12.88;0.35;;;16.20;99.90;;;;;;4997163;28;20038;-93
2022/10/01 10:10:53;;;;;;;0.85;0.30;;;16.20;99.90;;;;;;4981719;28;20031;-92
2022/10/01 10:13:34;;;;;;;0.10;0.10;;;16.60;99.90;;;;;;4996560;28;20060;-93
2022/10/01 10:16:17;;;;;;;0.00;0.00;;;15.90;99.90;;;;;;4996337;28;20072;-92
2022/10/01 10:18:50;;;;;;;1.00;0.47;;;15.80;99.90;;;;;;4996141;28;20035;-93
2022/10/01 10:21:20;;;;;;;3.40;1.13;;;16.60;99.90;;;;;;4979915;28;20041;-93
2022/10/01 10:24:04;;;;;;;0.55;0.45;;;16.00;99.90;;;;;;4995560;28;20025;-92
2022/10/01 10:26:32;;;;;;;0.90;0.63;;;15.40;99.90;;;;;;4996082;28;20030;-92
2022/10/01 10:29:01;;;;;;;0.17;0.17;;;14.80;99.90;;;;;;4980283;28;20042;-93
2022/10/01 10:31:46;;;;;;;0.55;0.52;;;14.80;99.90;;;;;;4980105;28;20030;-93
2022/10/01 10:34:20;;;;;;;0.43;0.28;;;14.30;99.90;;;;;;4977707;28;20045;-92
2022/10/01 10:36:56;;;;;;;0.63;0.55;;;14.70;99.90;;;;;;4994326;28;20042;-90
2022/10/01 10:39:26;;;;;;;0.17;0.17;;;14.20;99.90;;;;;;4991979;28;20030;-91
2022/10/01 10:41:56;;;;;;;0.00;0.00;;;14.10;99.90;;;;;;4975212;28;20050;-92
2022/10/01 10:44:25;;;;;;;0.20;0.20;;;12.50;99.90;;;;;;4989825;28;20026;-93
2022/10/01 10:46:57;;;;;;;0.00;0.00;;;12.50;99.90;;;;;;4978697;28;20101;-93
2022/10/01 10:49:28;;;;;;;0.20;0.20;;;12.60;99.90;;;;;;4978582;28;20034;-93
2022/10/01 10:51:55;;;;;;;0.00;0.00;;;12.70;99.90;;;;;;4995922;28;20135;-93
2022/10/01 10:54:31;;;;;;;0.43;0.32;;;12.80;99.90;;;;;;4996052;28;20090;-94
2022/10/01 10:57:01;;;;;;;0.00;0.00;;;12.80;99.90;;;;;;4980434;28;20058;-94
2022/10/01 10:59:31;;;;;;;0.50;0.30;;;12.90;99.90;;;;;;4996833;28;20034;-94
2022/10/01 11:02:06;;;;;;;0.00;0.00;;;14.10;99.90;;;;;;5094183;23;20041;-95
2022/10/01 11:04:40;;;;;;;0.00;0.00;;;13.50;99.90;;;;;;4985117;28;20027;-95
2022/10/01 11:07:07;;;;;;;0.00;0.00;;;13.30;99.90;;;;;;4984708;28;20184;-95
2022/10/01 11:09:50;;;;;;;0.00;0.00;;;14.20;99.90;;;;;;4984630;28;20028;-95
2022/10/01 11:12:35;;;;;;;1.75;0.70;;;13.10;99.90;;;;;;4984706;28;20025;-95
2022/10/01 11:15:30;;;;;;;0.00;0.00;;;13.60;99.90;;;;;;4985170;28;20026;-96
2022/10/01 11:18:47;;;;;;;0.00;0.00;;;14.00;99.90;;;;;;4955253;28;20039;-95
2022/10/01 11:21:31;;;;;;;0.45;0.15;;;13.90;99.90;;;;;;4922665;29;20024;-95
2022/10/01 11:24:06;;;;;;;0.00;0.00;;;14.00;99.90;;;;;;4983010;28;20037;-96
2022/10/01 11:26:43;;;;;;;0.25;0.10;;;15.50;99.90;;;;;;5005681;28;20018;-95
2022/10/01 11:29:30;;;;;;;0.00;0.00;;;14.60;99.90;;;;;;5005612;28;20030;-95
2022/10/01 11:32:18;;;;;;;0.40;0.40;;;14.90;99.90;;;;;;5005776;28;20086;-95
2022/10/01 11:35:18;;;;;;;0.00;0.00;;;15.20;99.90;;;;;;5004359;28;20033;-96
2022/10/01 11:38:05;;;;;;;4.05;1.52;;;15.40;99.90;;;;;;5003547;28;20032;-95
2022/10/01 11:40:42;;;;;;;0.03;0.03;;;14.30;99.90;;;;;;5002473;28;20294;-94
2022/10/01 11:43:30;;;;;;;0.98;0.63;;;15.30;99.90;;;;;;5001792;28;20026;-95
2022/10/01 11:46:05;;;;;;;0.15;0.13;;;15.20;99.90;;;;;;4985746;28;20082;-95
2022/10/01 11:48:48;;;;;;;0.10;0.10;;;16.00;99.90;;;;;;5017436;28;20030;-93
2022/10/01 11:51:25;;;;;;;0.30;0.30;;;15.00;99.90;;;;;;5000335;28;20108;-93
2022/10/01 11:54:00;;;;;;;0.03;0.03;;;15.20;99.90;;;;;;5017000;28;20030;-93
2022/10/01 11:59:27;;;;;;;3.97;0.52;;;15.20;99.90;;;;;;4999929;28;20041;-94
2022/10/01 12:02:14;;;;;;;0.20;0.20;;;15.20;99.90;;;;;;4984010;28;20053;-94
2022/10/01 12:04:56;;;;;;;0.10;0.10;;;15.10;99.90;;;;;;4999915;28;20081;-94
2022/10/01 12:07:48;;;;;;;0.22;0.20;;;16.40;99.90;;;;;;4983464;28;20030;-93
2022/10/01 12:10:49;;;;;;;2.50;0.65;;;15.80;99.90;;;;;;4991344;28;20058;-92
2022/10/01 12:13:15;;;;;;;0.75;0.57;;;16.00;99.90;;;;;;4905035;29;20048;-92
2022/10/01 12:15:50;;;;;;;0.05;0.05;;;16.00;99.90;;;;;;5056464;22;20046;-94
2022/10/01 12:18:30;;;;;;;0.47;0.32;;;15.80;99.90;;;;;;4979515;28;20094;-92
2022/10/01 12:21:06;;;;;;;0.03;0.03;;;15.90;99.90;;;;;;4996695;28;20026;-94
2022/10/01 12:23:46;;;;;;;0.28;0.20;;;15.80;99.90;;;;;;4980042;28;20031;-94
2022/10/01 12:26:30;;;;;;;0.00;0.00;;;15.70;99.90;;;;;;4980654;28;20027;-93
2022/10/01 12:29:18;;;;;;;0.00;0.00;;;15.50;99.90;;;;;;4980284;28;20042;-93
2022/10/01 12:32:09;;;;;;;0.00;0.00;;;15.30;99.90;;;;;;4964418;28;20027;-93
2022/10/01 12:35:01;;;;;;;0.15;0.08;;;15.20;99.90;;;;;;4979895;28;20083;-94
2022/10/01 12:37:54;;;;;;;0.50;0.30;;;15.10;99.90;;;;;;4962815;28;20063;-93
2022/10/01 12:40:58;;;;;;;1.58;1.48;;;15.40;99.90;;;;;;4995837;28;20030;-92
2022/10/01 12:44:01;;;;;;;0.77;0.55;;;16.00;99.90;;;;;;5023159;23;20069;-93
2022/10/01 12:46:30;;;;;;;0.22;0.20;;;16.40;99.90;;;;;;4997312;28;20038;-94
2022/10/01 12:49:11;;;;;;;5.07;0.65;;;16.80;99.90;;;;;;4997511;28;20042;-95
2022/10/01 12:51:43;;;;;;;0.40;0.40;;;16.50;99.90;;;;;;4982045;28;20031;-93
2022/10/01 12:54:20;;;;;;;2.60;0.52;;;16.40;1.00;;;;;;4981660;28;20058;-93
2022/10/01 12:57:17;;;;;;;0.52;0.25;;;16.10;99.90;;;;;;4998295;28;20041;-94
2022/10/01 13:00:08;;;;;;;0.00;0.00;;;16.30;99.90;;;;;;4974606;28;20041;-93
2022/10/01 13:02:46;;;;;;;0.20;0.20;;;17.50;99.90;;;;;;4982085;28;20049;-92
2022/10/01 13:05:36;;;;;;;1.30;0.43;;;19.30;1.00;;;;;;4981557;28;20102;-94
2022/10/01 13:08:16;;;;;;;2.28;0.55;;;18.60;99.90;;;;;;4982221;28;20296;-94
2022/10/01 13:11:05;;;;;;;2.97;1.23;;;19.20;61.50;;;;;;4977105;28;20034;-94
2022/10/01 13:13:32;;;;;;;0.43;0.30;;;19.80;99.90;;;;;;5001646;28;20122;-93
2022/10/01 13:16:17;;;;;;;0.00;0.00;;;19.10;99.90;;;;;;5001220;28;20038;-94
2022/10/01 13:19:30;;;;;;;1.20;0.75;;;18.50;1.00;;;;;;4999537;28;20077;-93
2022/10/01 13:22:31;;;;;;;0.65;0.40;;;17.60;61.40;;;;;;4989534;28;20050;-93
2022/10/01 13:25:28;;;;;;;0.85;0.52;;;17.50;99.90;;;;;;4996746;28;20034;-92
2022/10/01 13:28:08;;;;;;;0.10;0.10;;;15.60;92.70;;;;;;4977836;28;20053;-93
2022/10/01 13:31:13;;;;;;;0.00;0.00;;;14.40;99.90;;;;;;4993405;28;20046;-93
2022/10/01 13:33:40;;;;;;;0.00;0.00;;;13.90;99.90;;;;;;4994701;28;20077;-94
2022/10/01 13:36:08;;;;;;;0.47;0.43;;;13.80;99.90;;;;;;4995285;28;20026;-94
2022/10/01 13:38:36;;;;;;;0.13;0.13;;;13.90;99.90;;;;;;4996115;28;20026;-94
2022/10/01 13:41:16;;;;;;;1.65;0.75;;;15.30;99.90;;;;;;4995726;28;20069;-93
2022/10/01 13:44:06;;;;;;;0.00;0.00;;;14.70;99.90;;;;;;4997016;28;20038;-93
2022/10/01 13:46:46;;;;;;;0.05;0.05;;;14.10;99.90;;;;;;4980941;28;20089;-93
2022/10/01 13:49:25;;;;;;;0.20;0.20;;;13.90;99.90;;;;;;4996546;28;20038;-93
2022/10/01 13:51:51;;;;;;;0.00;0.00;;;14.40;99.90;;;;;;4997096;28;20033;-93
2022/10/01 13:54:38;;;;;;;0.25;0.25;;;15.10;99.90;;;;;;4996937;28;20026;-93
2022/10/01 13:57:30;;;;;;;0.00;0.00;;;15.80;99.90;;;;;;4996890;28;20066;-94
2022/10/01 14:00:07;;;;;;;1.80;0.47;;;16.10;99.90;;;;;;4977042;28;20047;-93
2022/10/01 14:02:38;;;;;;;0.10;0.10;;;15.70;99.90;;;;;;4996523;28;20041;-94
2022/10/01 14:05:16;;;;;;;0.20;0.20;;;16.80;1.00;;;;;;4996911;28;20030;-94
2022/10/01 14:07:45;;;;;;;0.00;0.00;;;16.90;1.00;;;;;;4980350;28;20043;-93
2022/10/01 14:10:13;;;;;;;0.85;0.40;;;16.90;99.90;;;;;;4996444;28;20067;-92
2022/10/01 14:15:58;;;;;;;0.00;0.00;;;16.50;99.90;;;;;;4991580;28;20090;-93
2022/10/01 14:18:46;;;;;;;0.00;0.00;;;15.30;99.90;;;;;;4976470;28;20044;-93
2022/10/01 14:21:36;;;;;;;0.00;0.00;;;15.10;99.90;;;;;;4960656;28;20098;-92
2022/10/01 14:24:28;;;;;;;0.00;0.00;;;15.20;97.50;;;;;;4960735;28;20110;-92
2022/10/01 14:27:04;;;;;;;0.00;0.00;;;15.10;1.00;;;;;;4976411;28;20054;-92
2022/10/01 14:29:39;;;;;;;2.45;0.57;;;14.50;1.00;;;;;;5024694;23;20074;-93
2022/10/01 14:32:16;;;;;;;0.75;0.63;;;14.20;1.00;;;;;;5012503;28;20509;-93
2022/10/01 14:34:50;;;;;;;0.93;0.30;;;14.00;99.90;;;;;;5012189;28;20073;-93
2022/10/01 14:37:18;;;;;;;0.00;0.00;;;14.00;99.90;;;;;;5012906;28;20034;-93
2022/10/01 14:39:44;;;;;;;0.95;0.30;;;14.40;99.90;;;;;;4995662;28;20038;-93
2022/10/01 14:42:15;;;;;;;0.22;0.22;;;14.40;99.90;;;;;;5012390;28;20041;-94
2022/10/01 14:44:44;;;;;;;1.00;0.65;;;15.40;99.90;;;;;;4995941;28;20034;-92
2022/10/01 14:47:16;;;;;;;6.25;0.17;;;14.70;99.90;;;;;;4979548;28;20041;-92
2022/10/01 14:49:41;;;;;;;1.08;0.60;;;14.00;99.90;;;;;;5012652;28;20041;-92
2022/10/01 14:52:21;;;;;;;0.00;0.00;;;15.70;99.90;;;;;;4995813;28;20046;-93
2022/10/01 14:54:58;;;;;;;0.15;0.15;;;15.20;99.90;;;;;;4995971;28;20030;-92
2022/10/01 14:57:29;;;;;;;0.10;0.10;;;15.00;99.90;;;;;;4996193;28;20041;-93
2022/10/01 14:59:57;;;;;;;0.30;0.30;;;16.00;99.90;;;;;;4995254;28;20034;-93
2022/10/01 15:02:25;;;;;;;0.00;0.00;;;14.70;44.20;;;;;;4980202;28;20065;-93
2022/10/01 15:04:53;;;;;;;0.17;0.17;;;14.40;99.90;;;;;;4996480;28;20038;-92
2022/10/01 15:07:20;;;;;;;0.30;0.30;;;15.20;99.90;;;;;;4996448;28;20027;-92
2022/10/01 15:09:47;;;;;;;0.10;0.10;;;13.80;99.90;;;;;;5012964;28;20030;-90
2022/10/01 15:12:16;;;;;;;0.00;0.00;;;13.70;99.90;;;;;;5013043;28;20039;-93
2022/10/01 15:14:43;;;;;;;0.10;0.10;;;15.10;99.90;;;;;;5012236;28;20037;-92
2022/10/01 15:17:20;;;;;;;0.10;0.10;;;14.00;99.90;;;;;;5012436;28;20029;-92
2022/10/01 15:19:51;;;;;;;0.00;0.00;;;14.00;99.90;;;;;;4995340;28;20064;-92
2022/10/01 15:22:21;;;;;;;0.20;0.20;;;13.80;99.90;;;;;;4979135;28;20039;-92
2022/10/01 15:24:49;;;;;;;2.45;1.17;;;15.00;99.90;;;;;;4979192;28;20038;-92
2022/10/01 15:27:18;;;;;;;0.00;0.00;;;13.80;99.90;;;;;;5012216;28;20026;-92
2022/10/01 15:29:45;;;;;;;1.70;1.27;;;13.90;99.90;;;;;;4990165;28;20034;-92
2022/10/01 15:32:17;;;;;;;0.10;0.10;;;13.80;99.90;;;;;;4973432;28;20042;-93
2022/10/01 15:34:51;;;;;;;0.00;0.00;;;13.70;99.90;;;;;;4940863;28;20031;-93
2022/10/01 15:37:27;;;;;;;0.55;0.55;;;14.40;99.90;;;;;;4956913;28;20054;-93
2022/10/01 15:39:53;;;;;;;0.32;0.32;;;14.30;99.90;;;;;;4973145;28;20042;-93
2022/10/01 15:42:21;;;;;;;0.20;0.20;;;14.60;1.00;;;;;;4957135;28;20071;-92
2022/10/01 15:44:48;;;;;;;0.32;0.05;;;14.70;1.00;;;;;;4972170;28;20051;-94
2022/10/01 15:47:25;;;;;;;1.35;1.02;;;15.60;99.90;;;;;;4972342;28;20039;-93
2022/10/01 15:50:01;;;;;;;0.00;0.00;;;14.80;99.90;;;;;;4956773;28;20037;-93
2022/10/01 15:52:51;;;;;;;0.05;0.03;;;15.40;99.90;;;;;;4972875;28;20035;-93
2022/10/01 15:55:20;;;;;;;0.20;0.10;;;14.60;1.00;;;;;;4973577;28;20034;-92
2022/10/01 15:57:53;;;;;;;0.47;0.38;;;14.60;99.90;;;;;;4972818;28;20051;-92
2022/10/01 16:00:27;;;;;;;21.40;2.08;;;14.40;99.90;;;;;;4973221;28;20054;-93
2022/10/01 16:02:54;;;;;;;1.02;0.65;;;14.30;99.90;;;;;;4972738;28;20129;-92
2022/10/01 16:05:24;;;;;;;2.10;1.05;;;15.20;1.00;;;;;;4988768;28;20229;-93
2022/10/01 16:07:57;;;;;;;1.35;0.75;;;14.60;1.00;;;;;;4973053;28;20027;-93
2022/10/01 16:10:39;;;;;;;0.20;0.20;;;14.00;99.90;;;;;;4966656;28;20032;-93
2022/10/01 16:13:30;;;;;;;0.00;0.00;;;13.90;1.00;;;;;;4944075;28;20233;-92
2022/10/01 16:16:11;;;;;;;13.57;1.20;;;13.80;1.00;;;;;;4975760;28;20062;-92
2022/10/01 16:18:38;;;;;;;0.75;0.35;;;13.90;1.00;;;;;;4976370;28;20102;-93
2022/10/01 16:21:05;;;;;;;10.32;0.70;;;14.10;1.00;;;;;;4976281;28;20031;-93
2022/10/01 16:23:44;;;;;;;0.13;0.08;;;13.80;1.00;;;;;;4943893;28;20055;-92
2022/10/01 16:26:32;;;;;;;0.75;0.52;;;13.80;1.00;;;;;;4976018;28;20079;-93
2022/10/01 16:29:13;;;;;;;3.38;0.98;;;14.80;1.00;;;;;;4976166;28;20115;-93
2022/10/01 16:31:42;;;;;;;0.00;0.00;;;14.30;1.00;;;;;;4959621;28;20051;-93
2022/10/01 16:34:11;;;;;;;0.00;0.00;;;13.70;59.60;;;;;;4959993;28;20067;-93
2022/10/01 16:36:37;;;;;;;0.15;0.15;;;13.70;99.90;;;;;;4976917;28;20038;-92
2022/10/01 16:39:07;;;;;;;0.00;0.00;;;13.50;99.90;;;;;;4976335;28;20035;-93
2022/10/01 16:41:34;;;;;;;0.90;0.90;;;13.40;99.90;;;;;;4975906;28;20099;-92
2022/10/01 16:44:06;;;;;;;0.15;0.15;;;13.40;99.90;;;;;;4976416;28;20087;-92
2022/10/01 16:46:32;;;;;;;5.07;1.55;;;13.30;99.90;;;;;;4975320;28;20091;-92
2022/10/01 16:48:58;;;;;;;0.55;0.55;;;13.20;99.90;;;;;;4958778;28;20043;-93
2022/10/01 16:51:24;;;;;;;0.00;0.00;;;14.30;99.90;;;;;;4976330;28;20087;-93
2022/10/01 16:53:50;;;;;;;0.00;0.00;;;14.30;99.90;;;;;;4975129;28;20038;-92
2022/10/01 16:56:18;;;;;;;0.65;0.40;;;14.00;99.90;;;;;;4975953;28;20046;-93
2022/10/01 16:58:44;;;;;;;0.00;0.00;;;13.10;99.90;;;;;;4959146;28;20019;-93
2022/10/01 17:01:13;;;;;;;0.70;0.70;;;13.00;99.90;;;;;;4959226;28;20041;-93
2022/10/01 17:03:39;;;;;;;0.13;0.10;;;14.00;99.90;;;;;;4975808;28;20062;-92
2022/10/01 17:06:05;;;;;;;0.13;0.13;;;13.50;99.90;;;;;;4959173;28;20034;-92
2022/10/01 17:08:31;;;;;;;3.22;1.85;;;12.70;99.90;;;;;;4975309;28;20039;-91
2022/10/01 17:11:02;;;;;;;2.88;0.85;;;12.60;99.90;;;;;;4975112;28;20046;-92
2022/10/01 17:13:31;;;;;;;5.18;1.75;;;12.50;99.90;;;;;;4959557;28;20054;-93
2022/10/01 17:15:57;;;;;;;5.70;1.65;;;12.40;99.90;;;;;;4974892;28;20035;-92
2022/10/01 17:18:23;;;;;;;0.43;0.35;;;12.90;99.90;;;;;;4959215;28;20047;-92
2022/10/01 17:20:49;;;;;;;4.25;1.80;;;12.30;99.90;;;;;;4975273;28;20028;-93
2022/10/01 17:23:17;;;;;;;0.00;0.00;;;12.30;99.90;;;;;;4974535;28;20110;-92
2022/10/01 17:25:43;;;;;;;0.82;0.82;;;12.30;99.90;;;;;;4959175;28;20050;-92
2022/10/01 17:28:15;;;;;;;1.13;0.25;;;12.10;99.90;;;;;;4975445;28;20047;-92
2022/10/01 17:30:46;;;;;;;1.55;0.70;;;12.10;99.90;;;;;;4966041;28;20046;-92
2022/10/01 17:33:14;;;;;;;2.58;1.05;;;12.00;99.90;;;;;;4974855;28;20041;-93
2022/10/01 17:35:44;;;;;;;0.00;0.00;;;13.40;99.90;;;;;;4975170;28;20042;-92
2022/10/01 17:38:10;;;;;;;0.00;0.00;;;12.00;99.90;;;;;;4974741;28;20031;-92
2022/10/01 17:40:41;;;;;;;0.10;0.08;;;12.70;99.90;;;;;;4974684;28;21265;-93
2022/10/01 17:43:11;;;;;;;0.43;0.43;;;11.90;99.90;;;;;;4975366;28;20046;-94
2022/10/01 17:45:37;;;;;;;2.47;0.65;;;11.90;99.90;;;;;;4973771;28;20043;-93
2022/10/01 17:48:06;;;;;;;0.10;0.10;;;11.90;99.90;;;;;;4971125;28;20054;-94
2022/10/01 17:50:31;;;;;;;0.00;0.00;;;11.80;99.90;;;;;;4973668;28;20027;-93
2022/10/01 17:52:59;;;;;;;0.80;0.38;;;11.80;99.90;;;;;;4971936;28;20065;-92
2022/10/01 17:55:25;;;;;;;0.65;0.22;;;11.80;99.90;;;;;;4971517;28;20549;-93
2022/10/01 17:57:52;;;;;;;2.17;1.85;;;11.80;99.90;;;;;;4972940;28;20040;-92
2022/10/01 18:00:18;;;;;;;0.90;0.45;;;11.80;99.90;;;;;;4974902;28;20035;-92
2022/10/01 18:02:45;;;;;;;0.10;0.10;;;12.70;99.90;;;;;;4973836;28;20051;-92
2022/10/01 18:05:13;;;;;;;0.43;0.43;;;10.70;99.90;;;;;;4958238;28;20035;-92
2022/10/01 18:07:40;;;;;;;0.10;0.10;;;11.70;99.90;;;;;;4973069;28;20047;-92
2022/10/01 18:10:08;;;;;;;0.90;0.30;;;11.70;99.90;;;;;;4957215;28;21160;-93
2022/10/01 18:12:37;;;;;;;3.33;0.43;;;11.70;99.90;;;;;;4956765;28;20028;-92
2022/10/01 18:15:06;;;;;;;0.00;0.00;;;11.70;99.90;;;;;;4973929;28;20046;-93
2022/10/01 18:17:33;;;;;;;0.30;0.30;;;11.60;99.90;;;;;;4974835;28;20090;-92